createdAt,value
2023-01-06T00:01:21.939Z,100264.00
2023-01-06T00:03:25.513Z,100259.66
2023-01-06T00:05:29.370Z,100259.66
2023-01-06T00:07:34.443Z,100262.47
2023-01-06T00:09:40.289Z,100277.34
2023-01-06T00:11:44.069Z,100266.81
2023-01-06T00:13:47.677Z,100264.19
2023-01-06T00:15:51.635Z,100252.81
2023-01-06T00:17:55.859Z,100257.97
2023-01-06T00:19:59.376Z,100256.28
2023-01-06T00:22:03.002Z,100263.34
2023-01-06T00:24:07.435Z,100272.25
2023-01-06T00:26:13.114Z,100256.47
2023-01-06T00:28:16.705Z,100259.09
2023-01-06T00:30:20.284Z,100277.53
2023-01-06T00:32:23.878Z,100268.84
2023-01-06T00:34:28.647Z,100269.78
2023-01-06T00:36:32.253Z,100276.84
2023-01-06T00:38:37.329Z,100267.25
2023-01-06T00:40:41.022Z,100280.31
2023-01-06T00:42:45.940Z,100270.75
2023-01-06T00:44:49.814Z,100275.16
2023-01-06T00:46:53.289Z,100254.06
2023-01-06T00:49:07.237Z,100263.78
2023-01-06T00:51:10.854Z,100268.22
2023-01-06T00:53:14.363Z,100267.44
2023-01-06T00:55:19.936Z,100258.69
2023-01-06T00:57:23.864Z,100256.13
2023-01-06T00:59:29.456Z,100259.63
2023-01-06T01:01:33.203Z,100271.91
2023-01-06T01:03:38.805Z,100267.63
2023-01-06T01:05:42.474Z,100265.91
2023-01-06T01:07:46.252Z,100266.94
2023-01-06T01:09:50.415Z,100268.72
2023-01-06T01:12:13.068Z,100267.84
2023-01-06T01:14:18.362Z,100268.81
2023-01-06T01:16:24.379Z,100255.66
2023-01-06T01:18:27.987Z,100253.94
2023-01-06T01:20:33.233Z,100262.78
2023-01-06T01:22:37.549Z,100261.06
2023-01-06T01:24:41.212Z,100256.69
2023-01-06T01:26:44.913Z,100254.13
2023-01-06T01:28:48.442Z,100262.97
2023-01-06T01:30:51.948Z,100263.06
2023-01-06T01:32:57.021Z,100263.16
2023-01-06T01:35:01.860Z,100264.06
2023-01-06T01:37:05.754Z,100260.56
2023-01-06T01:39:09.369Z,100260.66
2023-01-06T01:41:16.327Z,100263.31
2023-01-06T01:43:20.280Z,100264.25
2023-01-06T01:45:28.711Z,100268.66
2023-01-06T01:47:40.581Z,100270.44
2023-01-06T01:49:47.640Z,100274.00
2023-01-06T01:51:53.357Z,100281.06
2023-01-06T01:54:01.345Z,100268.00
2023-01-06T01:56:09.920Z,100268.06
2023-01-06T01:58:17.741Z,100263.84
2023-01-06T02:00:21.795Z,100278.88
2023-01-06T02:02:26.103Z,100262.28
2023-01-06T02:04:30.504Z,100276.41
2023-01-06T02:06:36.174Z,100284.41
2023-01-06T02:08:42.187Z,100267.75
2023-01-06T02:10:45.444Z,100278.34
2023-01-06T02:12:52.414Z,100286.25
2023-01-06T02:14:56.745Z,100291.69
2023-01-06T02:17:17.598Z,100288.28
2023-01-06T02:19:55.769Z,100291.00
2023-01-06T02:22:23.167Z,100296.44
2023-01-06T02:25:08.051Z,100293.91
2023-01-06T02:27:37.379Z,100298.31
2023-01-06T02:30:09.766Z,100298.31
2023-01-06T02:32:28.617Z,100300.09
2023-01-06T02:34:44.697Z,100295.75
2023-01-06T02:37:00.052Z,100294.09
2023-01-06T02:39:18.012Z,100311.63
2023-01-06T02:41:33.103Z,100298.47
2023-01-06T02:43:47.413Z,100313.44
2023-01-06T02:46:00.152Z,100305.63
2023-01-06T02:48:14.033Z,100316.16
2023-01-06T02:50:23.361Z,100318.78
2023-01-06T02:52:37.621Z,100325.72
2023-01-06T02:54:47.403Z,100330.16
2023-01-06T02:56:55.682Z,100339.75
2023-01-06T02:59:06.463Z,100335.50
2023-01-06T03:01:16.371Z,100347.88
2023-01-06T03:03:24.546Z,100349.66
2023-01-06T03:05:30.322Z,100352.28
2023-01-06T03:07:35.561Z,100357.56
2023-01-06T03:09:39.870Z,100364.63
2023-01-06T03:11:47.037Z,100360.28
2023-01-06T03:13:54.529Z,100370.81
2023-01-06T03:15:57.869Z,100363.84
2023-01-06T03:18:01.789Z,100363.84
2023-01-06T03:20:08.136Z,100361.25
2023-01-06T03:22:14.429Z,100360.41
2023-01-06T03:24:19.580Z,100360.41
2023-01-06T03:26:25.952Z,100358.72
2023-01-06T03:28:29.762Z,100355.25
2023-01-06T03:30:43.334Z,100356.16
2023-01-06T03:32:55.251Z,100355.28
2023-01-06T03:35:12.121Z,100355.47
2023-01-06T03:37:26.861Z,100348.50
2023-01-06T03:39:40.848Z,100348.59
2023-01-06T03:42:06.111Z,100347.75
2023-01-06T03:44:16.859Z,100337.31
2023-01-06T03:46:26.786Z,100335.59
2023-01-06T03:48:39.356Z,100351.47
2023-01-06T03:50:49.849Z,100354.19
2023-01-06T03:53:00.541Z,100351.66
2023-01-06T03:55:09.888Z,100349.00
2023-01-06T03:57:18.190Z,100346.28
2023-01-06T03:59:26.671Z,100347.13
2023-01-06T04:01:32.053Z,100351.47
2023-01-06T04:03:36.467Z,100352.41
2023-01-06T04:05:40.142Z,100339.25
2023-01-06T04:07:46.534Z,100350.69
2023-01-06T04:09:51.551Z,100359.59
2023-01-06T04:12:12.623Z,100364.00
2023-01-06T04:14:16.823Z,100372.75
2023-01-06T04:16:20.493Z,100357.91
2023-01-06T04:18:24.119Z,100357.03
2023-01-06T04:20:31.728Z,100372.81
2023-01-06T04:22:42.385Z,100360.53
2023-01-06T04:24:47.323Z,100356.97
2023-01-06T04:26:51.047Z,100356.13
2023-01-06T04:28:54.591Z,100361.38
2023-01-06T04:30:59.356Z,100366.56
2023-01-06T04:33:03.372Z,100364.94
2023-01-06T04:35:07.552Z,100364.94
2023-01-06T04:37:11.379Z,100357.03
2023-01-06T04:39:14.964Z,100371.06
2023-01-06T04:41:19.896Z,100365.72
2023-01-06T04:43:24.337Z,100366.47
2023-01-06T04:45:27.950Z,100353.31
2023-01-06T04:47:32.843Z,100370.81
2023-01-06T04:49:36.540Z,100369.03
2023-01-06T04:51:40.294Z,100369.88
2023-01-06T04:53:43.773Z,100377.69
2023-01-06T04:55:47.364Z,100369.81
2023-01-06T04:57:52.289Z,100373.28
2023-01-06T04:59:55.912Z,100371.44
2023-01-06T05:01:59.473Z,100374.81
2023-01-06T05:04:03.419Z,100386.13
2023-01-06T05:06:10.133Z,100379.94
2023-01-06T05:08:13.856Z,100381.59
2023-01-06T05:10:17.652Z,100384.22
2023-01-06T05:12:21.222Z,100376.28
2023-01-06T05:14:26.257Z,100374.50
2023-01-06T05:16:32.058Z,100370.06
2023-01-06T05:18:35.807Z,100365.75
2023-01-06T05:20:39.320Z,100363.03
2023-01-06T05:22:42.961Z,100369.16
2023-01-06T05:24:46.502Z,100362.09
2023-01-06T05:26:50.051Z,100369.16
2023-01-06T05:28:54.340Z,100357.72
2023-01-06T05:31:02.388Z,100363.84
2023-01-06T05:33:05.991Z,100365.63
2023-01-06T05:35:10.501Z,100370.81
2023-01-06T05:37:14.191Z,100372.50
2023-01-06T05:39:18.023Z,100373.34
2023-01-06T05:41:21.637Z,100376.66
2023-01-06T05:43:25.623Z,100380.06
2023-01-06T05:45:29.178Z,100382.69
2023-01-06T05:47:34.315Z,100377.44
2023-01-06T05:49:39.230Z,100361.53
2023-01-06T05:51:42.892Z,100366.91
2023-01-06T05:53:48.199Z,100375.56
2023-01-06T05:55:51.884Z,100369.34
2023-01-06T05:57:55.562Z,100365.03
2023-01-06T05:59:59.165Z,100370.31
2023-01-06T06:02:02.652Z,100373.69
2023-01-06T06:04:07.870Z,100374.63
2023-01-06T06:06:11.519Z,100367.69
2023-01-06T06:08:15.306Z,100371.97
2023-01-06T06:10:18.926Z,100378.22
2023-01-06T06:12:22.473Z,100366.81
2023-01-06T06:14:26.944Z,100373.03
2023-01-06T06:16:30.713Z,100375.56
2023-01-06T06:18:34.301Z,100371.25
2023-01-06T06:20:39.353Z,100382.50
2023-01-06T06:22:42.930Z,100378.97
2023-01-06T06:24:46.631Z,100379.81
2023-01-06T06:26:50.209Z,100381.50
2023-01-06T06:28:53.840Z,100372.78
2023-01-06T06:30:57.570Z,100374.56
2023-01-06T06:33:01.093Z,100378.97
2023-01-06T06:35:04.675Z,100380.66
2023-01-06T06:37:11.833Z,100376.25
2023-01-06T06:39:16.133Z,100375.31
2023-01-06T06:41:20.283Z,100369.97
2023-01-06T06:43:23.748Z,100368.94
2023-01-06T06:45:27.392Z,100371.50
2023-01-06T06:47:30.996Z,100376.59
2023-01-06T06:49:34.579Z,100375.66
2023-01-06T06:51:38.288Z,100373.72
2023-01-06T06:53:43.184Z,100374.41
2023-01-06T06:55:46.763Z,100368.09
2023-01-06T06:57:50.273Z,100374.06
2023-01-06T06:59:53.981Z,100366.94
2023-01-06T07:01:57.635Z,100372.88
2023-01-06T07:04:01.387Z,100371.00
2023-01-06T07:06:05.639Z,100370.06
2023-01-06T07:08:09.508Z,100369.13
2023-01-06T07:10:17.196Z,100368.19
2023-01-06T07:12:20.664Z,100373.38
2023-01-06T07:14:24.252Z,100360.13
2023-01-06T07:16:27.915Z,100355.72
2023-01-06T07:18:31.413Z,100349.50
2023-01-06T07:20:36.497Z,100356.38
2023-01-06T07:22:40.524Z,100358.94
2023-01-06T07:24:44.082Z,100366.72
2023-01-06T07:26:48.950Z,100375.41
2023-01-06T07:28:52.613Z,100377.13
2023-01-06T07:30:56.256Z,100377.97
2023-01-06T07:32:59.925Z,100374.41
2023-01-06T07:35:03.649Z,100377.78
2023-01-06T07:37:07.551Z,100383.81
2023-01-06T07:39:11.055Z,100374.22
2023-01-06T07:41:14.469Z,100376.75
2023-01-06T07:43:19.819Z,100377.63
2023-01-06T07:45:23.350Z,100376.66
2023-01-06T07:47:26.895Z,100379.31
2023-01-06T07:49:30.418Z,100384.56
2023-01-06T07:51:34.374Z,100375.75
2023-01-06T07:53:39.554Z,100372.34
2023-01-06T07:55:43.259Z,100382.03
2023-01-06T07:57:46.870Z,100373.28
2023-01-06T07:59:51.853Z,100370.66
2023-01-06T08:01:55.415Z,100369.72
2023-01-06T08:03:59.312Z,100360.94
2023-01-06T08:06:08.469Z,100365.38
2023-01-06T08:08:12.628Z,100355.59
2023-01-06T08:10:16.386Z,100362.56
2023-01-06T08:12:19.867Z,100363.44
2023-01-06T08:14:23.456Z,100351.94
2023-01-06T08:16:28.549Z,100347.53
2023-01-06T08:18:32.199Z,100345.84
2023-01-06T08:20:35.913Z,100346.66
2023-01-06T08:22:39.500Z,100351.94
2023-01-06T08:24:43.120Z,100337.84
2023-01-06T08:26:46.939Z,100345.66
2023-01-06T08:28:50.934Z,100335.97
2023-01-06T08:30:56.013Z,100339.47
2023-01-06T08:33:01.719Z,100327.22
2023-01-06T08:35:06.048Z,100332.56
2023-01-06T08:37:09.806Z,100329.00
2023-01-06T08:39:15.441Z,100327.31
2023-01-06T08:41:19.147Z,100320.25
2023-01-06T08:43:22.831Z,100330.78
2023-01-06T08:45:26.378Z,100325.50
2023-01-06T08:47:29.884Z,100333.34
2023-01-06T08:49:35.113Z,100328.91
2023-01-06T08:51:38.702Z,100330.63
2023-01-06T08:53:44.091Z,100336.72
2023-01-06T08:55:47.779Z,100338.34
2023-01-06T08:57:53.888Z,100337.31
2023-01-06T08:59:58.615Z,100344.00
2023-01-06T09:02:05.532Z,100343.81
2023-01-06T09:04:11.687Z,100340.16
2023-01-06T09:06:18.226Z,100348.84
2023-01-06T09:08:21.936Z,100356.66
2023-01-06T09:10:26.118Z,100343.41
2023-01-06T09:12:29.836Z,100353.84
2023-01-06T09:14:33.412Z,100339.75
2023-01-06T09:16:37.516Z,100337.94
2023-01-06T09:18:47.665Z,100334.38
2023-01-06T09:20:51.721Z,100321.09
2023-01-06T09:22:57.836Z,100324.56
2023-01-06T09:25:04.540Z,100322.81
2023-01-06T09:27:09.045Z,100319.25
2023-01-06T09:29:13.051Z,100324.50
2023-01-06T09:31:18.619Z,100330.63
2023-01-06T09:33:22.864Z,100317.34
2023-01-06T09:35:26.823Z,100329.78
2023-01-06T09:37:30.545Z,100330.63
2023-01-06T09:39:37.586Z,100326.19
2023-01-06T09:42:01.339Z,100315.53
2023-01-06T09:44:07.886Z,100308.31
2023-01-06T09:46:18.530Z,100302.84
2023-01-06T09:48:28.028Z,100294.84
2023-01-06T09:50:36.128Z,100283.28
2023-01-06T09:52:43.527Z,100276.13
2023-01-06T09:54:55.265Z,100284.78
2023-01-06T09:57:04.401Z,100282.94
2023-01-06T09:59:12.213Z,100284.69
2023-01-06T10:01:22.158Z,100276.63
2023-01-06T10:03:28.967Z,100284.34
2023-01-06T10:05:43.283Z,100278.97
2023-01-06T10:07:56.104Z,100278.97
2023-01-06T10:10:13.364Z,100280.66
2023-01-06T10:12:33.464Z,100284.03
2023-01-06T10:14:48.660Z,100284.91
2023-01-06T10:17:07.616Z,100274.28
2023-01-06T10:19:21.114Z,100277.66
2023-01-06T10:21:34.528Z,100280.22
2023-01-06T10:23:53.574Z,100271.34
2023-01-06T10:26:10.292Z,100271.25
2023-01-06T10:28:21.615Z,100268.53
2023-01-06T10:30:30.864Z,100271.06
2023-01-06T10:32:40.580Z,100271.06
2023-01-06T10:34:47.734Z,100254.22
2023-01-06T10:36:58.327Z,100259.50
2023-01-06T10:39:07.314Z,100268.25
2023-01-06T10:41:21.365Z,100271.56
2023-01-06T10:43:25.399Z,100273.13
2023-01-06T10:45:34.065Z,100263.16
2023-01-06T10:47:38.973Z,100269.09
2023-01-06T10:49:43.211Z,100262.78
2023-01-06T10:51:53.134Z,100259.72
2023-01-06T10:53:59.387Z,100262.94
2023-01-06T10:56:05.226Z,100252.09
2023-01-06T10:58:25.927Z,100254.44
2023-01-06T11:00:32.779Z,100239.19
2023-01-06T11:02:37.089Z,100241.72
2023-01-06T11:04:52.610Z,100231.06
2023-01-06T11:06:59.190Z,100232.66
2023-01-06T11:09:09.075Z,100243.09
2023-01-06T11:11:33.383Z,100235.94
2023-01-06T11:13:40.271Z,100242.69
2023-01-06T11:15:44.794Z,100239.13
2023-01-06T11:17:48.605Z,100242.44
2023-01-06T11:20:08.830Z,100229.84
2023-01-06T11:22:35.396Z,100242.97
2023-01-06T11:24:53.277Z,100239.25
2023-01-06T11:26:58.865Z,100241.72
2023-01-06T11:29:19.759Z,100236.34
2023-01-06T11:31:26.113Z,100237.06
2023-01-06T11:33:31.943Z,100237.94
2023-01-06T11:35:35.489Z,100221.06
2023-01-06T11:37:42.740Z,100231.41
2023-01-06T11:39:49.192Z,100229.59
2023-01-06T11:42:06.571Z,100221.69
2023-01-06T11:44:18.415Z,100216.28
2023-01-06T11:46:25.651Z,100209.25
2023-01-06T11:48:32.564Z,100203.75
2023-01-06T11:50:36.420Z,100206.28
2023-01-06T11:52:41.267Z,100196.38
2023-01-06T11:54:45.221Z,100192.59
2023-01-06T11:56:59.665Z,100199.38
2023-01-06T11:59:10.087Z,100189.25
2023-01-06T12:01:20.052Z,100183.53
2023-01-06T12:03:31.907Z,100184.91
2023-01-06T12:05:40.337Z,100178.47
2023-01-06T12:07:51.330Z,100171.19
2023-01-06T12:09:59.624Z,100160.50
2023-01-06T12:12:08.556Z,100158.63
2023-01-06T12:14:27.498Z,100155.84
2023-01-06T12:16:39.561Z,100149.63
2023-01-06T12:18:44.311Z,100143.25
2023-01-06T12:20:51.746Z,100151.84
2023-01-06T12:22:58.546Z,100140.19
2023-01-06T12:25:03.675Z,100138.31
2023-01-06T12:27:08.648Z,100126.88
2023-01-06T12:29:18.434Z,100129.41
2023-01-06T12:31:27.976Z,100126.66
2023-01-06T12:33:37.056Z,100128.34
2023-01-06T12:35:43.667Z,100122.00
2023-01-06T12:37:49.810Z,100120.94
2023-01-06T12:40:01.392Z,100113.66
2023-01-06T12:42:14.338Z,100106.97
2023-01-06T12:44:30.771Z,100107.38
2023-01-06T12:46:41.769Z,100100.81
2023-01-06T12:48:51.800Z,100101.44
2023-01-06T12:51:01.526Z,100099.28
2023-01-06T12:53:20.229Z,100100.75
2023-01-06T12:55:34.949Z,100090.06
2023-01-06T12:57:53.492Z,100083.00
2023-01-06T13:00:08.181Z,100071.53
2023-01-06T13:02:26.580Z,100066.25
2023-01-06T13:04:49.496Z,100056.41
2023-01-06T13:07:04.003Z,100056.19
2023-01-06T13:09:22.420Z,100048.25
2023-01-06T13:11:39.875Z,100035.78
2023-01-06T13:13:56.037Z,100031.53
2023-01-06T13:16:03.132Z,100023.72
2023-01-06T13:18:15.996Z,100035.25
2023-01-06T13:20:27.445Z,100017.69
2023-01-06T13:22:44.720Z,100015.03
2023-01-06T13:25:18.774Z,100012.16
2023-01-06T13:27:39.279Z,99998.84
2023-01-06T13:29:57.629Z,99994.16
2023-01-06T13:32:18.545Z,99980.81
2023-01-06T13:34:52.679Z,99983.34
2023-01-06T13:37:18.186Z,99975.41
2023-01-06T13:39:24.719Z,99969.28
2023-01-06T13:41:33.828Z,99966.63
2023-01-06T13:43:37.503Z,99961.44
2023-01-06T13:45:44.484Z,99957.00
2023-01-06T13:47:50.211Z,99944.75
2023-01-06T13:49:54.380Z,99943.88
2023-01-06T13:51:58.813Z,99936.69
2023-01-06T13:54:03.999Z,99940.06
2023-01-06T13:56:26.996Z,99933.94
2023-01-06T13:58:38.167Z,99937.41
2023-01-06T14:00:44.650Z,99931.41
2023-01-06T14:03:25.962Z,99912.25
2023-01-06T14:05:57.713Z,99907.91
2023-01-06T14:08:03.307Z,99903.59
2023-01-06T14:10:28.845Z,99902.03
2023-01-06T14:12:35.829Z,99899.38
2023-01-06T14:14:40.318Z,99888.94
2023-01-06T14:16:47.103Z,99874.13
2023-01-06T14:18:52.506Z,99868.84
2023-01-06T14:21:02.611Z,99861.84
2023-01-06T14:23:18.574Z,99861.03
2023-01-06T14:25:26.004Z,99849.81
2023-01-06T14:28:08.306Z,99847.41
2023-01-06T14:30:22.364Z,99837.78
2023-01-06T14:33:01.597Z,99834.41
2023-01-06T14:35:11.330Z,99818.53
2023-01-06T14:37:17.074Z,99810.72
2023-01-06T14:39:26.066Z,99811.59
2023-01-06T14:41:34.507Z,99803.66
2023-01-06T14:43:54.592Z,99787.91
2023-01-06T14:46:01.744Z,99787.78
2023-01-06T14:48:09.497Z,99792.31
2023-01-06T14:50:18.719Z,99785.34
2023-01-06T14:52:30.302Z,99777.31
2023-01-06T14:54:38.911Z,99778.16
2023-01-06T14:56:54.436Z,99772.75
2023-01-06T14:59:12.401Z,99769.28
2023-01-06T15:01:25.124Z,99755.06
2023-01-06T15:03:30.339Z,99760.34
2023-01-06T15:05:37.221Z,99756.75
2023-01-06T15:07:40.737Z,99766.38
2023-01-06T15:09:44.358Z,99763.72
2023-01-06T15:11:49.224Z,99769.03
2023-01-06T15:13:53.455Z,99761.91
2023-01-06T15:16:04.865Z,99757.38
2023-01-06T15:18:09.391Z,99752.91
2023-01-06T15:20:14.837Z,99745.94
2023-01-06T15:22:24.396Z,99737.28
2023-01-06T15:24:31.357Z,99745.22
2023-01-06T15:26:34.917Z,99744.38
2023-01-06T15:28:39.890Z,99732.00
2023-01-06T15:30:51.436Z,99730.31
2023-01-06T15:32:56.202Z,99731.25
2023-01-06T15:35:00.989Z,99726.22
2023-01-06T15:37:08.552Z,99729.72
2023-01-06T15:39:15.201Z,99727.16
2023-01-06T15:43:50.173Z,99717.78
2023-01-06T15:46:00.126Z,99710.94
2023-01-06T15:48:12.440Z,99708.66
2023-01-06T15:50:20.722Z,99702.53
2023-01-06T15:52:28.072Z,99694.94
2023-01-06T15:54:35.932Z,99689.91
2023-01-06T15:56:41.770Z,99678.72
2023-01-06T15:58:45.651Z,99680.66
2023-01-06T16:01:02.371Z,99668.38
2023-01-06T16:03:07.640Z,99657.81
2023-01-06T16:05:36.019Z,99652.53
2023-01-06T16:07:43.318Z,99635.84
2023-01-06T16:09:47.020Z,99639.44
2023-01-06T16:11:57.775Z,99640.16
2023-01-06T16:14:01.439Z,99642.81
2023-01-06T16:16:25.558Z,99636.66
2023-01-06T16:18:32.390Z,99627.16
2023-01-06T16:20:36.160Z,99630.53
2023-01-06T16:22:50.286Z,99623.69
2023-01-06T16:24:54.686Z,99623.81
2023-01-06T16:27:02.417Z,99625.72
2023-01-06T16:29:26.056Z,99618.16
2023-01-06T16:31:31.966Z,99597.28
2023-01-06T16:33:39.520Z,99598.22
2023-01-06T16:35:43.679Z,99578.88
2023-01-06T16:37:47.493Z,99573.56
2023-01-06T16:39:58.858Z,99563.88
2023-01-06T16:42:41.083Z,99562.78
2023-01-06T16:44:44.915Z,99562.53
2023-01-06T16:46:49.865Z,99553.66
2023-01-06T16:48:56.294Z,99557.00
2023-01-06T16:51:00.041Z,99556.78
2023-01-06T16:53:12.344Z,99550.50
2023-01-06T16:55:17.948Z,99545.09
2023-01-06T16:57:21.934Z,99535.25
2023-01-06T16:59:27.599Z,99532.50
2023-01-06T17:01:31.385Z,99519.28
2023-01-06T17:03:39.506Z,99512.19
2023-01-06T17:05:43.210Z,99510.41
2023-01-06T17:07:46.927Z,99510.41
2023-01-06T17:09:51.530Z,99499.81
2023-01-06T17:11:55.538Z,99499.81
2023-01-06T17:14:02.209Z,99493.66
2023-01-06T17:16:15.737Z,99486.72
2023-01-06T17:18:25.651Z,99480.72
2023-01-06T17:20:32.028Z,99471.94
2023-01-06T17:22:35.637Z,99471.94
2023-01-06T17:24:39.160Z,99464.72
2023-01-06T17:26:49.502Z,99455.97
2023-01-06T17:28:55.536Z,99457.41
2023-01-06T17:31:00.613Z,99453.66
2023-01-06T17:33:05.425Z,99438.63
2023-01-06T17:35:22.737Z,99439.38
2023-01-06T17:37:29.982Z,99445.47
2023-01-06T17:39:39.012Z,99433.94
2023-01-06T17:41:43.055Z,99432.13
2023-01-06T17:43:47.700Z,99429.22
2023-01-06T17:45:51.548Z,99421.19
2023-01-06T17:47:56.118Z,99416.59
2023-01-06T17:50:01.488Z,99405.91
2023-01-06T17:52:22.554Z,99410.38
2023-01-06T17:54:45.034Z,99408.69
2023-01-06T17:56:49.225Z,99403.53
2023-01-06T17:58:52.833Z,99399.31
2023-01-06T18:00:57.197Z,99391.66
2023-01-06T18:03:04.036Z,99390.09
2023-01-06T18:05:58.646Z,99386.03
2023-01-06T18:08:08.171Z,99382.78
2023-01-06T18:10:18.013Z,99371.50
2023-01-06T18:12:22.307Z,99361.31
2023-01-06T18:14:33.152Z,99353.63
2023-01-06T18:16:37.073Z,99354.72
2023-01-06T18:18:42.519Z,99358.31
2023-01-06T18:20:48.652Z,99344.41
2023-01-06T18:22:52.371Z,99348.97
2023-01-06T18:24:59.416Z,99341.91
2023-01-06T18:27:08.132Z,99340.22
2023-01-06T18:29:16.916Z,99341.03
2023-01-06T18:31:23.989Z,99340.22
2023-01-06T18:33:29.901Z,99326.31
2023-01-06T18:35:33.542Z,99328.94
2023-01-06T18:37:37.387Z,99312.22
2023-01-06T18:39:42.978Z,99298.19
2023-01-06T18:41:46.661Z,99299.97
2023-01-06T18:43:51.756Z,99289.53
2023-01-06T18:45:57.689Z,99288.72
2023-01-06T18:48:05.525Z,99278.00
2023-01-06T18:50:27.873Z,99269.38
2023-01-06T18:52:50.149Z,99263.38
2023-01-06T18:54:56.334Z,99266.84
2023-01-06T18:57:00.577Z,99259.78
2023-01-06T18:59:15.057Z,99244.75
2023-01-06T19:01:21.042Z,99248.34
2023-01-06T19:03:35.304Z,99245.72
2023-01-06T19:05:39.790Z,99246.69
2023-01-06T19:07:43.499Z,99259.78
2023-01-06T19:09:48.881Z,99255.31
2023-01-06T19:12:01.669Z,99257.00
2023-01-06T19:14:17.080Z,99257.00
2023-01-06T19:16:36.123Z,99265.75
2023-01-06T19:18:39.890Z,99266.63
2023-01-06T19:20:45.915Z,99259.38
2023-01-06T19:22:50.435Z,99249.53
2023-01-06T19:25:04.707Z,99258.16
2023-01-06T19:27:43.336Z,99249.28
2023-01-06T19:29:48.691Z,99243.16
2023-01-06T19:31:57.202Z,99237.75
2023-01-06T19:34:02.793Z,99224.53
2023-01-06T19:36:41.341Z,99222.31
2023-01-06T19:38:45.727Z,99210.56
2023-01-06T19:40:49.411Z,99236.91
2023-01-06T19:42:54.038Z,99221.91
2023-01-06T19:45:03.057Z,99212.25
2023-01-06T19:47:20.027Z,99211.06
2023-01-06T19:49:25.421Z,99213.03
2023-01-06T19:51:34.309Z,99206.25
2023-01-06T19:53:44.478Z,99203.19
2023-01-06T19:55:48.139Z,99212.41
2023-01-06T19:57:53.475Z,99211.19
2023-01-06T20:00:01.854Z,99206.56
2023-01-06T20:02:28.601Z,99195.72
2023-01-06T20:04:32.385Z,99185.97
2023-01-06T20:06:35.961Z,99179.56
2023-01-06T20:08:41.420Z,99187.38
2023-01-06T20:10:45.040Z,99182.91
2023-01-06T20:12:48.970Z,99186.28
2023-01-06T20:14:52.626Z,99178.34
2023-01-06T20:16:59.698Z,99171.22
2023-01-06T20:19:03.421Z,99178.06
2023-01-06T20:21:08.005Z,99169.97
2023-01-06T20:23:12.480Z,99176.09
2023-01-06T20:25:16.303Z,99171.50
2023-01-06T20:27:19.909Z,99157.16
2023-01-06T20:29:23.443Z,99158.44
2023-01-06T20:31:27.016Z,99153.41
2023-01-06T20:33:32.418Z,99140.88
2023-01-06T20:35:35.988Z,99139.22
2023-01-06T20:37:40.349Z,99145.34
2023-01-06T20:39:45.422Z,99150.63
2023-01-06T20:41:49.039Z,99146.31
2023-01-06T20:43:53.031Z,99148.13
2023-01-06T20:45:57.179Z,99137.53
2023-01-06T20:48:00.838Z,99132.38
2023-01-06T20:50:07.761Z,99124.97
2023-01-06T20:52:11.382Z,99125.53
2023-01-06T20:54:15.326Z,99114.00
2023-01-06T20:56:19.204Z,99103.41
2023-01-06T20:58:23.320Z,99115.78
2023-01-06T21:00:27.165Z,99112.59
2023-01-06T21:02:31.135Z,99098.50
2023-01-06T21:04:34.909Z,99099.63
2023-01-06T21:06:40.176Z,99104.22
2023-01-06T21:08:43.765Z,99079.00
2023-01-06T21:10:47.816Z,99083.59
2023-01-06T21:12:51.614Z,99090.72
2023-01-06T21:14:55.487Z,99079.28
2023-01-06T21:16:59.533Z,99079.97
2023-01-06T21:19:03.365Z,99077.91
2023-01-06T21:21:08.349Z,99082.09
2023-01-06T21:23:14.088Z,99071.50
2023-01-06T21:25:20.035Z,99064.22
2023-01-06T21:27:24.044Z,99077.47
2023-01-06T21:29:28.008Z,99068.56
2023-01-06T21:31:31.712Z,99079.81
2023-01-06T21:33:35.329Z,99072.03
2023-01-06T21:35:38.975Z,99063.25
2023-01-06T21:37:42.711Z,99063.25
2023-01-06T21:39:48.422Z,99057.25
2023-01-06T21:42:09.641Z,99054.75
2023-01-06T21:44:13.337Z,99053.94
2023-01-06T21:46:17.109Z,99040.84
2023-01-06T21:48:22.625Z,99047.94
2023-01-06T21:50:27.105Z,99041.81
2023-01-06T21:52:30.800Z,99045.28
2023-01-06T21:54:34.669Z,99035.69
2023-01-06T21:56:39.709Z,99033.88
2023-01-06T21:58:43.283Z,99031.38
2023-01-06T22:00:47.114Z,99031.38
2023-01-06T22:02:53.425Z,99027.75
2023-01-06T22:04:57.157Z,99028.72
2023-01-06T22:07:04.244Z,99027.03
2023-01-06T22:09:09.875Z,99020.06
2023-01-06T22:11:13.832Z,99019.09
2023-01-06T22:13:21.356Z,99009.47
2023-01-06T22:15:25.574Z,99012.41
2023-01-06T22:17:29.366Z,99003.91
2023-01-06T22:19:33.509Z,99006.84
2023-01-06T22:21:38.053Z,99006.31
2023-01-06T22:23:41.814Z,98997.81
2023-01-06T22:25:45.570Z,98990.97
2023-01-06T22:27:49.183Z,98992.94
2023-01-06T22:29:54.078Z,98991.28
2023-01-06T22:32:02.752Z,98995.84
2023-01-06T22:34:08.506Z,98992.38
2023-01-06T22:36:13.113Z,98981.94
2023-01-06T22:38:16.991Z,98992.53
2023-01-06T22:40:21.620Z,98990.03
2023-01-06T22:42:25.472Z,98981.22
2023-01-06T22:44:29.243Z,98979.59
2023-01-06T22:46:34.333Z,98985.84
2023-01-06T22:48:38.801Z,98978.72
2023-01-06T22:50:42.530Z,98980.56
2023-01-06T22:52:46.160Z,98970.94
2023-01-06T22:54:49.722Z,98971.06
2023-01-06T22:56:53.425Z,98962.31
2023-01-06T22:58:57.325Z,98955.34
2023-01-06T23:01:01.268Z,98955.34
2023-01-06T23:03:06.277Z,98952.69
2023-01-06T23:05:10.977Z,98940.44
2023-01-06T23:07:14.664Z,98953.66
2023-01-06T23:09:18.523Z,98940.59
2023-01-06T23:11:22.570Z,98935.44
2023-01-06T23:13:26.788Z,98928.47
2023-01-06T23:15:30.187Z,98923.31
2023-01-06T23:17:33.837Z,98920.81
2023-01-06T23:19:38.989Z,98913.88
2023-01-06T23:21:42.924Z,98912.31
2023-01-06T23:23:47.587Z,98904.38
2023-01-06T23:25:51.134Z,98902.72
2023-01-06T23:27:54.867Z,98890.50
2023-01-06T23:29:58.370Z,98887.97
2023-01-06T23:32:02.111Z,98887.00
2023-01-06T23:34:07.593Z,98885.19
2023-01-06T23:36:15.672Z,98891.31
2023-01-06T23:38:19.353Z,98889.63
2023-01-06T23:40:23.070Z,98885.19
2023-01-06T23:42:28.650Z,98875.44
2023-01-06T23:44:32.353Z,98871.84
2023-01-06T23:46:37.782Z,98877.94
2023-01-06T23:48:42.220Z,98873.47
2023-01-06T23:50:51.540Z,98883.22
2023-01-06T23:52:56.852Z,98868.91
2023-01-06T23:55:00.287Z,98867.22
2023-01-06T23:57:03.971Z,98875.16
2023-01-06T23:59:09.121Z,98869.88
